N0JY-4 Weather Reports


Display with metric or nautical units.
time (UTC)temp
F
wind
direction
speed
MPH
gust
MPH
rain 1hr
in
rain 24hr
in
rain mn
in
humidity
%
barometer
mb
20170723082805 82 142 4.0 6.0 0.00 0.00 0.00 70 1012.0
20170723082021 82 145 6.0 6.0 0.00 0.00 0.00 69 1012.2
20170723081254 82 152 6.0 5.0 0.00 0.00 0.00 69 1012.2
20170723080527 82 141 5.0 6.0 0.00 0.00 0.00 68 1012.3
20170723075800 82 155 4.0 4.0 0.00 0.00 0.00 68 1012.3
20170723075019 83 125 6.0 5.0 0.00 0.00 0.00 67 1012.5
20170723074253 83 148 6.0 9.0 0.00 0.00 0.00 66 1012.6
20170723073526 83 132 5.0 3.0 0.00 0.00 0.00 65 1012.4
20170723072758 83 156 7.0 7.0 0.00 0.00 0.00 64 1012.5
20170723072023 83 143 6.0 5.0 0.00 0.00 0.00 64 1012.6
20170723071255 83 134 7.0 8.0 0.00 0.00 0.00 63 1012.6
20170723070529 84 169 7.0 7.0 0.00 0.00 0.00 62 1012.6
20170723065802 84 118 8.0 7.0 0.00 0.00 0.00 62 1012.6
20170723065026 84 153 7.0 9.0 0.00 0.00 0.00 61 1012.9
20170723064300 84 159 7.0 7.0 0.00 0.00 0.00 60 1012.9
20170723063533 85 131 8.0 11.0 0.00 0.00 0.00 59 1013.0
20170723062807 85 149 10.0 9.0 0.00 0.00 0.00 58 1012.9
20170723062034 85 143 9.0 6.0 0.00 0.00 0.00 57 1013.2
20170723061254 85 132 12.0 13.0 0.00 0.00 0.00 56 1013.3
20170723060527 86 141 10.0 8.0 0.00 0.00 0.00 55 1013.3
20170723055801 86 145 7.0 9.0 0.00 0.00 0.00 55 1013.5
20170723055029 86 139 7.0 8.0 0.00 0.00 0.00 56 1013.5
20170723054301 85 152 5.0 4.0 0.00 0.00 0.00 56 1013.6
20170723053534 85 107 6.0 6.0 0.00 0.00 0.00 56 1013.6
20170723052808 86 103 4.0 6.0 0.00 0.00 0.00 55 1013.6
20170723052034 86 131 5.0 6.0 0.00 0.00 0.00 54 1013.5
20170723051305 86 113 4.0 4.0 0.00 0.00 0.00 55 1013.5
20170723050538 86 121 6.0 5.0 0.00 0.00 0.00 55 1013.4
20170723045812 86 97 4.0 3.0 0.00 0.00 0.00 55 1013.3
20170723045038 86 108 4.0 4.0 0.00 0.00 0.00 54 1013.3
20170723044313 86 107 4.0 4.0 0.00 0.00 0.00 54 1013.3
20170723043546 87 65 4.0 5.0 0.00 0.00 0.00 54 1013.3
20170723042818 87 62 3.0 3.0 0.00 0.00 0.00 53 1013.2
20170723042046 87 69 4.0 3.0 0.00 0.00 0.00 53 1012.9
20170723041319 88 115 3.0 3.0 0.00 0.00 0.00 52 1012.8
20170723040553 88 108 5.0 4.0 0.00 0.00 0.00 52 1012.8
20170723035824 88 104 5.0 4.0 0.00 0.00 0.00 52 1012.8
20170723035049 89 89 4.0 2.0 0.00 0.00 0.00 51 1012.8
20170723034320 89 86 5.0 6.0 0.00 0.00 0.00 50 1012.6
20170723033552 90 120 5.0 5.0 0.00 0.00 0.00 49 1012.6
20170723032827 90 136 5.0 6.0 0.00 0.00 0.00 46 1012.5
20170723032048 90 162 6.0 6.0 0.00 0.00 0.00 46 1012.4
20170723031322 90 108 5.0 7.0 0.00 0.00 0.00 47 1012.4
20170723030556 91 158 6.0 6.0 0.00 0.00 0.00 47 1012.2
20170723025826 91 127 5.0 4.0 0.00 0.00 0.00 47 1012.2
20170723025052 91 128 4.0 5.0 0.00 0.00 0.00 47 1012.2
20170723024325 91 134 4.0 4.0 0.00 0.00 0.00 46 1012.1
20170723023559 91 118 4.0 4.0 0.00 0.00 0.00 46 1012.0
20170723022829 92 111 4.0 4.0 0.00 0.00 0.00 45 1012.1
20170723022055 92 125 5.0 5.0 0.00 0.00 0.00 45 1012.1
20170723021329 91 129 4.0 4.0 0.00 0.00 0.00 46 1011.9
20170723020602 92 114 3.0 5.0 0.00 0.00 0.00 45 1011.9
20170723015835 93 96 2.0 5.0 0.00 0.00 0.00 43 1011.8
20170723015059 93 124 3.0 4.0 0.00 0.00 0.00 43 1011.6
20170723014333 93 105 4.0 4.0 0.00 0.00 0.00 42 1011.5
20170723013606 94 113 4.0 4.0 0.00 0.00 0.00 41 1011.4
20170723012838 94 125 5.0 5.0 0.00 0.00 0.00 40 1011.3
20170723012106 95 128 5.0 3.0 0.00 0.00 0.00 38 1011.2
20170723011339 95 156 5.0 4.0 0.00 0.00 0.00 37 1011.0
20170723010613 96 146 6.0 7.0 0.00 0.00 0.00 36 1011.0
20170723005846 96 145 8.0 8.0 0.00 0.00 0.00 35 1011.0
20170723005115 96 142 7.0 8.0 0.00 0.00 0.00 35 1010.9
20170723004348 96 118 6.0 6.0 0.00 0.00 0.00 35 1010.9
20170723003622 97 142 10.0 10.0 0.00 0.00 0.00 34 1010.8
20170723002855 97 124 7.0 6.0 0.00 0.00 0.00 34 1010.8
20170723002125 97 136 9.0 8.0 0.00 0.00 0.00 33 1010.8
20170723001359 98 145 6.0 5.0 0.00 0.00 0.00 34 1010.8
20170723000632 98 127 6.0 7.0 0.00 0.00 0.00 33 1010.7
20170722235902 98 125 9.0 8.0 0.00 0.00 0.00 33 1010.6
20170722234401 98 148 11.0 10.0 0.00 0.00 0.00 32 1010.5
20170722233635 99 165 10.0 10.0 0.00 0.00 0.00 32 1010.4
20170722232903 98 132 12.0 11.0 0.00 0.00 0.00 31 1010.5
20170722232133 99 160 8.0 8.0 0.00 0.00 0.00 33 1010.4
20170722231406 99 155 10.0 10.0 0.00 0.00 0.00 30 1010.4
20170722230639 99 172 8.0 9.0 0.00 0.00 0.00 31 1010.5
20170722225910 100 158 9.0 8.0 0.00 0.00 0.00 30 1010.5
20170722225140 100 136 9.0 9.0 0.00 0.00 0.00 31 1010.6
20170722224414 100 94 10.0 9.0 0.00 0.00 0.00 30 1010.8
20170722223647 100 167 7.0 6.0 0.00 0.00 0.00 29 1010.9
20170722222921 100 141 8.0 9.0 0.00 0.00 0.00 27 1011.0
20170722222149 100 158 9.0 9.0 0.00 0.00 0.00 28 1011.1
20170722221420 100 146 5.0 6.0 0.00 0.00 0.00 29 1011.1
20170722220651 100 141 10.0 12.0 0.00 0.00 0.00 30 1011.2
20170722215922 100 139 9.0 11.0 0.00 0.00 0.00 30 1011.3
20170722215148 100 117 8.0 9.0 0.00 0.00 0.00 31 1011.4
20170722214421 99 94 7.0 6.0 0.00 0.00 0.00 30 1011.6
20170722213655 100 162 3.0 9.0 0.00 0.00 0.00 30 1011.7
20170722212924 100 158 9.0 6.0 0.00 0.00 0.00 29 1011.8
20170722212154 100 139 8.0 16.0 0.00 0.00 0.00 30 1011.7
20170722211428 101 173 6.0 6.0 0.00 0.00 0.00 30 1011.7
20170722210700 101 174 9.0 6.0 0.00 0.00 0.00 31 1011.9
20170722205933 100 166 7.0 11.0 0.00 0.00 0.00 33 1012.0
20170722204436 101 145 6.0 12.0 0.00 0.00 0.00 31 1012.2
20170722203710 101 205 7.0 11.0 0.00 0.00 0.00 30 1012.3
20170722202942 100 152 6.0 5.0 0.00 0.00 0.00 31 1012.5
20170722202210 101 204 8.0 6.0 0.00 0.00 0.00 30 1012.4
20170722201443 100 173 7.0 4.0 0.00 0.00 0.00 32 1012.5
20170722200717 100 149 9.0 7.0 0.00 0.00 0.00 31 1012.4
20170722195949 100 198 9.0 13.0 0.00 0.00 0.00 35 1012.4
20170722195218 99 131 9.0 12.0 0.00 0.00 0.00 33 1012.5
20170722194452 99 131 6.0 5.0 0.00 0.00 0.00 34 1012.5
20170722193725 100 203 5.0 10.0 0.00 0.00 0.00 34 1012.6
20170722192959 99 170 6.0 3.0 0.00 0.00 0.00 33 1012.7
20170722192229 99 190 8.0 5.0 0.00 0.00 0.00 36 1012.8
20170722191502 98 169 5.0 1.0 0.00 0.00 0.00 36 1013.0
20170722190736 98 179 8.0 8.0 0.00 0.00 0.00 35 1013.0
20170722190008 99 141 6.0 5.0 0.00 0.00 0.00 34 1013.3
20170722185239 99 166 9.0 10.0 0.00 0.00 0.00 35 1013.5
20170722184510 99 190 8.0 9.0 0.00 0.00 0.00 36 1013.7
20170722183743 99 204 8.0 7.0 0.00 0.00 0.00 35 1013.6
20170722183017 98 183 8.0 9.0 0.00 0.00 0.00 35 1013.7
20170722182244 98 193 9.0 12.0 0.00 0.00 0.00 36 1013.9
20170722181518 97 125 4.0 6.0 0.00 0.00 0.00 36 1014.0
20170722180751 98 146 7.0 8.0 0.00 0.00 0.00 38 1014.1
20170722180025 97 139 8.0 9.0 0.00 0.00 0.00 38 1014.1
20170722175251 98 183 7.0 10.0 0.00 0.00 0.00 40 1014.2
20170722174523 97 162 10.0 8.0 0.00 0.00 0.00 39 1014.4
20170722173753 98 181 5.0 4.0 0.00 0.00 0.00 41 1014.5
20170722173026 97 180 8.0 9.0 0.00 0.00 0.00 42 1014.5
20170722172251 97 200 8.0 5.0 0.00 0.00 0.00 41 1014.6
20170722171525 96 212 9.0 12.0 0.00 0.00 0.00 42 1014.6
20170722170756 96 194 5.0 5.0 0.00 0.00 0.00 43 1014.6
20170722170026 95 208 7.0 8.0 0.00 0.00 0.00 43 1014.7
20170722165251 95 208 7.0 4.0 0.00 0.00 0.00 45 1014.7
20170722163754 94 195 7.0 10.0 0.00 0.00 0.00 45 1014.8
20170722163028 94 159 7.0 9.0 0.00 0.00 0.00 47 1014.9
20170722162255 94 190 8.0 7.0 0.00 0.00 0.00 45 1014.9
20170722161528 93 243 7.0 6.0 0.00 0.00 0.00 47 1015.0
20170722160800 93 222 8.0 6.0 0.00 0.00 0.00 48 1015.0
20170722160028 93 203 7.0 6.0 0.00 0.00 0.00 47 1015.2
20170722155256 92 201 8.0 6.0 0.00 0.00 0.00 49 1015.1
20170722154529 92 177 9.0 9.0 0.00 0.00 0.00 49 1015.1
20170722153802 91 221 8.0 8.0 0.00 0.00 0.00 51 1015.2
20170722153035 90 172 6.0 7.0 0.00 0.00 0.00 52 1015.2
20170722152305 91 170 8.0 6.0 0.00 0.00 0.00 51 1015.2
20170722151536 90 183 9.0 8.0 0.00 0.00 0.00 52 1015.2
20170722150807 90 148 9.0 8.0 0.00 0.00 0.00 53 1015.2
20170722150041 90 222 8.0 9.0 0.00 0.00 0.00 55 1015.3
20170722145309 89 195 8.0 9.0 0.00 0.00 0.00 54 1015.3
20170722144543 89 221 6.0 6.0 0.00 0.00 0.00 55 1015.3
20170722143816 88 190 8.0 5.0 0.00 0.00 0.00 57 1015.3
20170722143049 88 221 8.0 6.0 0.00 0.00 0.00 58 1015.3
20170722142316 87 198 6.0 5.0 0.00 0.00 0.00 59 1015.2
20170722141549 86 212 7.0 7.0 0.00 0.00 0.00 61 1015.2
20170722140822 86 208 6.0 7.0 0.00 0.00 0.00 63 1015.2
20170722140053 85 152 7.0 5.0 0.00 0.00 0.00 63 1015.2
20170722135314 85 153 5.0 6.0 0.00 0.00 0.00 64 1015.2
20170722134548 84 166 5.0 4.0 0.00 0.00 0.00 65 1015.1
20170722133821 84 136 5.0 4.0 0.00 0.00 0.00 65 1015.1
20170722133053 84 165 4.0 6.0 0.00 0.00 0.00 66 1015.0
20170722132315 83 150 5.0 4.0 0.00 0.00 0.00 68 1014.9
20170722131548 83 158 3.0 4.0 0.00 0.00 0.00 69 1014.8
20170722130821 83 150 4.0 5.0 0.00 0.00 0.00 70 1014.9
20170722130050 82 156 5.0 5.0 0.00 0.00 0.00 71 1014.9
20170722125316 82 120 5.0 6.0 0.00 0.00 0.00 73 1015.0
20170722124546 81 149 5.0 4.0 0.00 0.00 0.00 73 1015.0
20170722123807 81 146 5.0 6.0 0.00 0.00 0.00 74 1014.9
20170722123040 81 138 5.0 4.0 0.00 0.00 0.00 75 1014.8
20170722122309 80 145 4.0 4.0 0.00 0.00 0.00 75 1014.7
20170722120814 80 113 2.0 2.0 0.00 0.00 0.00 76 1014.6
20170722120048 80 141 3.0 4.0 0.00 0.00 0.00 76 1014.5
20170722115303 80 148 3.0 3.0 0.00 0.00 0.00 77 1014.5
20170722114537 80 122 2.0 3.0 0.00 0.00 0.00 77 1014.5
20170722113807 80 117 3.0 4.0 0.00 0.00 0.00 76 1014.4
20170722113039 80 131 3.0 3.0 0.00 0.00 0.00 75 1014.4
20170722112259 81 117 3.0 1.0 0.00 0.00 0.00 75 1014.3
20170722111532 81 91 2.0 4.0 0.00 0.00 0.00 75 1014.2
20170722110804 80 141 3.0 3.0 0.00 0.00 0.00 74 1014.2
20170722110030 81 129 4.0 4.0 0.00 0.00 0.00 74 1014.1
20170722105258 80 128 5.0 4.0 0.00 0.00 0.00 74 1014.2
20170722104529 81 121 3.0 3.0 0.00 0.00 0.00 73 1014.2
20170722103803 81 115 5.0 6.0 0.00 0.00 0.00 73 1014.2
20170722103035 81 128 4.0 3.0 0.00 0.00 0.00 73 1014.2
20170722102305 81 136 3.0 3.0 0.00 0.00 0.00 72 1014.3
20170722101537 82 134 3.0 4.0 0.00 0.00 0.00 71 1014.3
20170722100808 82 141 3.0 3.0 0.00 0.00 0.00 71 1014.2
20170722100041 81 159 4.0 5.0 0.00 0.00 0.00 71 1014.2
20170722095308 82 113 4.0 4.0 0.00 0.00 0.00 71 1014.2
20170722094537 82 132 4.0 3.0 0.00 0.00 0.00 70 1014.1
20170722093804 82 146 5.0 5.0 0.00 0.00 0.00 70 1014.1
20170722093038 82 139 4.0 5.0 0.00 0.00 0.00 70 1014.1
20170722092301 82 145 6.0 4.0 0.00 0.00 0.00 69 1014.0
20170722091534 82 134 5.0 5.0 0.00 0.00 0.00 69 1014.1
20170722090805 82 145 6.0 6.0 0.00 0.00 0.00 68 1014.1
20170722090038 82 134 5.0 6.0 0.00 0.00 0.00 68 1014.2
20170722085309 82 139 6.0 5.0 0.00 0.00 0.00 68 1014.2
20170722084541 82 135 5.0 5.0 0.00 0.00 0.00 67 1014.2
20170722083813 83 138 5.0 3.0 0.00 0.00 0.00 67 1014.4